Watford, Canada
Current Conditions -  °F | °C
As of 11:00 PM on Saturday 24 Jan 2015 (Local Time) from CYZR Reporting Station
Overcast Overcast  
Wind Chill: 26°   Ceiling: 4900
Heat Index: 34°   Visibility: 9mi
Dew Point: 30°   Wind: 9mph
Humidity: 87%   Direction: 290°WNW
Pressure: 29.64"   Gusts: NA
Location:  42.95°N, 81.88°W
Report Text: CYZR 250400Z AUTO 29008KT 9SM FEW022 OVC049 01/M01 A2964 RMK SLP043
Loading
Personal Weather Stations






























Interactive Weather Map New forecast layout! Learn more

10-Day Weather Forecast

Advertisements
Track Severe Weather on mobile